createdAt,value
2022-11-02T00:00:18.664Z,16.60
2022-11-02T00:05:27.114Z,16.42
2022-11-02T00:10:32.578Z,14.02
2022-11-02T00:15:39.184Z,12.63
2022-11-02T00:20:44.917Z,16.45
2022-11-02T00:30:55.717Z,15.70
2022-11-02T00:36:01.749Z,20.40
2022-11-02T00:41:10.053Z,18.48
2022-11-02T00:46:15.982Z,14.63
2022-11-02T00:51:21.696Z,15.73
2022-11-02T00:56:27.160Z,16.73
2022-11-02T01:01:32.974Z,15.90
2022-11-02T01:06:41.474Z,15.27
2022-11-02T01:11:46.934Z,15.18
2022-11-02T01:16:53.052Z,11.07
2022-11-02T01:21:58.777Z,17.85
2022-11-02T01:27:04.102Z,16.25
2022-11-02T01:32:09.474Z,17.03
2022-11-02T01:37:16.049Z,13.63
2022-11-02T01:42:25.981Z,15.32
2022-11-02T01:47:34.213Z,18.60
2022-11-02T01:52:41.166Z,14.73
2022-11-02T01:57:48.370Z,16.02
2022-11-02T02:03:22.678Z,11.55
2022-11-02T02:08:29.943Z,23.83
2022-11-02T02:18:39.971Z,15.07
2022-11-02T02:24:03.885Z,18.60
2022-11-02T02:29:24.120Z,22.02
2022-11-02T02:34:33.604Z,16.25
2022-11-02T02:39:44.545Z,15.50
2022-11-02T02:44:56.970Z,10.98
2022-11-02T02:50:16.533Z,15.48
2022-11-02T02:55:28.079Z,12.00
2022-11-02T03:00:36.210Z,16.50
2022-11-02T03:05:41.975Z,13.43
2022-11-02T03:10:56.127Z,14.27
2022-11-02T03:16:06.147Z,12.70
2022-11-02T03:21:43.579Z,13.65
2022-11-02T03:26:53.983Z,14.07
2022-11-02T03:32:02.399Z,13.13
2022-11-02T03:37:25.077Z,12.77
2022-11-02T03:42:33.588Z,11.48
2022-11-02T03:47:40.185Z,11.48
2022-11-02T03:52:49.727Z,12.40
2022-11-02T03:57:55.632Z,14.82
2022-11-02T04:03:08.458Z,6.57
2022-11-02T04:08:22.760Z,12.95
2022-11-02T04:13:53.980Z,15.65
2022-11-02T04:19:20.237Z,16.97
2022-11-02T04:24:50.139Z,15.23
2022-11-02T04:29:56.773Z,17.13
2022-11-02T04:35:07.541Z,15.13
2022-11-02T04:40:13.315Z,14.88
2022-11-02T04:50:32.486Z,7.70
2022-11-02T04:55:38.447Z,10.10
2022-11-02T05:00:44.778Z,9.35
2022-11-02T05:05:51.440Z,16.15
2022-11-02T05:11:00.276Z,8.77
2022-11-02T05:16:06.815Z,13.82
2022-11-02T05:21:14.131Z,7.25
2022-11-02T05:26:19.578Z,7.18
2022-11-02T05:31:27.045Z,10.65
2022-11-02T05:36:32.253Z,9.38
2022-11-02T05:41:38.417Z,11.55
2022-11-02T05:51:50.765Z,9.32
2022-11-02T05:56:56.650Z,6.40
2022-11-02T06:02:01.977Z,10.30
2022-11-02T06:07:07.515Z,7.57
2022-11-02T06:12:13.553Z,9.70
2022-11-02T06:17:19.160Z,9.00
2022-11-02T06:27:29.033Z,10.10
2022-11-02T06:32:34.868Z,7.30
2022-11-02T06:37:40.274Z,7.88
2022-11-02T06:43:03.315Z,8.75
2022-11-02T06:48:12.642Z,8.77
2022-11-02T06:58:24.724Z,7.65
2022-11-02T07:03:37.024Z,6.78
2022-11-02T07:08:42.528Z,9.02
2022-11-02T07:18:53.280Z,10.90
2022-11-02T07:29:03.462Z,9.77
2022-11-02T07:34:14.085Z,8.15
2022-11-02T07:39:22.553Z,5.68
2022-11-02T07:44:28.699Z,9.25
2022-11-02T07:49:34.454Z,10.05
2022-11-02T07:54:44.464Z,10.70
2022-11-02T07:59:53.264Z,8.18
2022-11-02T08:04:58.825Z,10.35
2022-11-02T08:10:04.311Z,9.98
2022-11-02T08:15:13.555Z,10.27
2022-11-02T08:20:21.607Z,9.80
2022-11-02T08:25:30.262Z,9.75
2022-11-02T08:30:36.337Z,10.32
2022-11-02T08:35:42.453Z,9.23
2022-11-02T08:40:47.617Z,10.02
2022-11-02T08:51:18.907Z,9.57
2022-11-02T08:56:24.647Z,10.18
2022-11-02T09:01:30.266Z,9.40
2022-11-02T09:06:45.197Z,10.27
2022-11-02T09:11:53.456Z,9.38
2022-11-02T09:16:58.949Z,10.27
2022-11-02T09:22:05.824Z,11.50
2022-11-02T09:27:11.225Z,12.02
2022-11-02T09:32:16.711Z,11.57
2022-11-02T09:37:22.370Z,12.00
2022-11-02T09:48:14.853Z,10.85
2022-11-02T09:53:03.637Z,11.30
2022-11-02T09:58:14.974Z,11.25
2022-11-02T10:03:41.635Z,11.77
2022-11-02T10:09:07.889Z,11.95
2022-11-02T10:14:30.426Z,12.68
2022-11-02T10:19:39.245Z,13.60
2022-11-02T10:24:46.776Z,13.10
2022-11-02T10:29:58.154Z,12.57
2022-11-02T10:35:25.292Z,14.32
2022-11-02T10:40:42.654Z,15.35
2022-11-02T10:45:54.723Z,17.05
2022-11-02T10:51:14.158Z,15.63
2022-11-02T10:56:24.127Z,16.38
2022-11-02T11:01:30.614Z,17.05
2022-11-02T11:06:46.439Z,17.63
2022-11-02T11:12:08.347Z,17.20
2022-11-02T11:22:44.799Z,14.80
2022-11-02T11:32:55.703Z,13.63
2022-11-02T11:43:08.489Z,13.45
2022-11-02T11:48:16.540Z,15.73
2022-11-02T11:53:25.531Z,16.88
2022-11-02T11:58:32.596Z,18.48
2022-11-02T12:03:55.177Z,18.75
2022-11-02T12:09:04.368Z,18.58
2022-11-02T12:14:10.376Z,24.52
2022-11-02T12:19:34.090Z,20.33
2022-11-02T12:25:02.284Z,20.10
2022-11-02T12:30:22.631Z,16.63
2022-11-02T12:35:46.097Z,18.80
2022-11-02T12:40:57.443Z,19.10
2022-11-02T12:46:40.368Z,17.05
2022-11-02T12:51:54.769Z,15.90
2022-11-02T12:57:18.414Z,17.35
2022-11-02T13:02:47.161Z,16.42
2022-11-02T13:08:29.920Z,21.80
2022-11-02T13:19:23.226Z,23.00
2022-11-02T13:24:52.398Z,19.88
2022-11-02T13:30:56.607Z,21.38
2022-11-02T13:41:55.442Z,21.80
2022-11-02T13:47:22.565Z,20.90
2022-11-02T13:52:46.578Z,43.17
2022-11-02T13:58:03.214Z,43.00
2022-11-02T14:03:25.195Z,27.80
2022-11-02T14:08:51.888Z,32.80
2022-11-02T14:14:05.678Z,57.35
2022-11-02T14:19:25.268Z,60.47
2022-11-02T14:36:31.564Z,60.63
2022-11-02T14:42:06.671Z,54.97
2022-11-02T14:47:17.561Z,53.38
2022-11-02T14:52:38.614Z,63.33
2022-11-02T14:58:19.661Z,71.70
2022-11-02T15:03:44.112Z,83.28
2022-11-02T15:09:09.191Z,76.88
2022-11-02T15:14:40.525Z,74.00
2022-11-02T15:25:29.058Z,108.88
2022-11-02T15:36:13.307Z,96.25
2022-11-02T15:41:35.869Z,83.88
2022-11-02T15:47:13.320Z,53.95
2022-11-02T15:53:01.758Z,76.07
2022-11-02T15:58:07.909Z,71.57
2022-11-02T16:03:20.774Z,68.38
2022-11-02T16:08:27.733Z,64.18
2022-11-02T16:13:48.681Z,65.22
2022-11-02T16:19:01.502Z,70.53
2022-11-02T16:24:07.096Z,69.05
2022-11-02T16:29:13.372Z,72.25
2022-11-02T16:34:21.863Z,70.28
2022-11-02T16:39:38.794Z,74.25
2022-11-02T16:49:50.924Z,72.15
2022-11-02T16:54:56.198Z,74.50
2022-11-02T17:00:12.288Z,69.17
2022-11-02T17:05:20.310Z,69.70
2022-11-02T17:10:30.560Z,69.03
2022-11-02T17:15:38.858Z,67.97
2022-11-02T17:20:44.347Z,61.95
2022-11-02T17:25:49.911Z,55.95
2022-11-02T17:30:55.614Z,58.80
2022-11-02T17:36:10.498Z,54.70
2022-11-02T17:41:35.538Z,53.72
2022-11-02T17:46:43.116Z,56.45
2022-11-02T17:51:51.268Z,49.58
2022-11-02T17:56:56.456Z,56.83
2022-11-02T18:02:02.158Z,54.30
2022-11-02T18:12:16.458Z,61.38
2022-11-02T18:17:21.960Z,68.43
2022-11-02T18:22:27.164Z,65.93
2022-11-02T18:27:32.375Z,67.80
2022-11-02T18:32:41.784Z,67.13
2022-11-02T18:37:47.433Z,69.70
2022-11-02T18:42:52.758Z,71.22
2022-11-02T18:48:00.945Z,74.57
2022-11-02T18:53:06.369Z,70.60
2022-11-02T18:58:13.310Z,72.32
2022-11-02T19:03:20.171Z,75.93
2022-11-02T19:08:43.380Z,75.75
2022-11-02T19:13:48.704Z,76.47
2022-11-02T19:18:54.213Z,74.65
2022-11-02T19:23:59.574Z,74.50
2022-11-02T19:29:06.507Z,71.45
2022-11-02T19:34:12.379Z,70.18
2022-11-02T19:39:17.547Z,70.70
2022-11-02T19:44:23.231Z,71.80
2022-11-02T19:49:28.778Z,70.38
2022-11-02T19:54:33.821Z,70.15
2022-11-02T19:59:39.013Z,71.60
2022-11-02T20:04:45.668Z,65.90
2022-11-02T20:09:53.459Z,65.85
2022-11-02T20:15:00.959Z,70.28
2022-11-02T20:20:06.486Z,74.67
2022-11-02T20:25:12.012Z,66.95
2022-11-02T20:30:17.242Z,67.28
2022-11-02T20:35:26.966Z,81.07
2022-11-02T20:40:37.487Z,76.55
2022-11-02T20:45:46.198Z,80.13
2022-11-02T20:55:56.223Z,79.68
2022-11-02T21:01:01.373Z,81.63
2022-11-02T21:06:07.560Z,75.93
2022-11-02T21:11:31.494Z,82.45
2022-11-02T21:16:36.929Z,88.53
2022-11-02T21:21:42.337Z,78.93
2022-11-02T21:26:47.964Z,75.35
2022-11-02T21:31:53.204Z,79.50
2022-11-02T21:36:58.689Z,68.77
2022-11-02T21:42:04.228Z,79.28
2022-11-02T21:47:10.317Z,78.97
2022-11-02T21:52:15.849Z,78.90
2022-11-02T21:57:21.378Z,80.88
2022-11-02T22:02:26.983Z,73.53
2022-11-02T22:07:55.132Z,73.05
2022-11-02T22:13:18.721Z,70.30
2022-11-02T22:18:23.881Z,67.15
2022-11-02T22:23:29.010Z,60.93
2022-11-02T22:28:35.394Z,51.97
2022-11-02T22:33:40.913Z,53.08
2022-11-02T22:38:55.391Z,52.03
2022-11-02T22:44:00.965Z,49.63
2022-11-02T22:49:06.566Z,47.23
2022-11-02T22:54:15.036Z,47.50
2022-11-02T22:59:20.705Z,48.50
2022-11-02T23:04:25.854Z,43.08
2022-11-02T23:09:31.268Z,51.23
2022-11-02T23:14:36.942Z,42.30
2022-11-02T23:19:42.233Z,52.43
2022-11-02T23:25:13.748Z,58.08
2022-11-02T23:30:38.252Z,47.22
2022-11-02T23:36:02.008Z,53.55
2022-11-02T23:41:07.373Z,43.17
2022-11-02T23:46:12.705Z,52.70
2022-11-02T23:51:36.270Z,52.90
2022-11-02T23:56:47.648Z,50.92
